createdAt,value
2023-02-11T00:00:03.666Z,1015.15
2023-02-11T00:05:07.822Z,1015.16
2023-02-11T00:10:12.002Z,1015.12
2023-02-11T00:15:16.192Z,1015.01
2023-02-11T00:20:20.324Z,1014.94
2023-02-11T00:25:24.478Z,1014.79
2023-02-11T00:30:28.628Z,1014.83
2023-02-11T00:35:32.828Z,1014.70
2023-02-11T00:40:36.934Z,1014.64
2023-02-11T00:45:41.113Z,1014.78
2023-02-11T00:50:43.375Z,1014.85
2023-02-11T00:55:45.756Z,1014.81
2023-02-11T01:00:49.823Z,1014.67
2023-02-11T01:05:53.982Z,1014.60
2023-02-11T01:10:58.146Z,1014.63
2023-02-11T01:16:02.345Z,1014.78
2023-02-11T01:21:06.597Z,1014.84
2023-02-11T01:26:08.796Z,1014.99
2023-02-11T01:31:12.997Z,1015.07
2023-02-11T01:36:17.070Z,1015.03
2023-02-11T01:41:21.209Z,1015.12
2023-02-11T01:46:25.489Z,1015.23
2023-02-11T01:51:29.574Z,1015.31
2023-02-11T01:56:33.730Z,1015.18
2023-02-11T02:01:38.000Z,1014.95
2023-02-11T02:06:42.067Z,1014.94
2023-02-11T02:11:46.230Z,1014.91
2023-02-11T02:16:50.393Z,1014.77
2023-02-11T02:21:54.542Z,1014.67
2023-02-11T02:26:58.683Z,1014.38
2023-02-11T02:32:02.861Z,1014.22
2023-02-11T02:37:07.050Z,1014.13
2023-02-11T02:42:09.310Z,1014.04
2023-02-11T02:47:13.430Z,1013.88
2023-02-11T02:52:15.740Z,1014.08
2023-02-11T02:57:19.909Z,1013.97
2023-02-11T03:02:24.060Z,1013.92
2023-02-11T03:07:28.190Z,1013.84
2023-02-11T03:12:32.368Z,1013.81
2023-02-11T03:17:36.564Z,1013.76
2023-02-11T03:22:40.712Z,1013.79
2023-02-11T03:27:44.853Z,1013.76
2023-02-11T03:32:49.048Z,1013.87
2023-02-11T03:37:53.189Z,1013.79
2023-02-11T03:42:57.369Z,1013.71
2023-02-11T03:48:01.536Z,1013.64
2023-02-11T03:53:05.788Z,1013.59
2023-02-11T03:58:09.885Z,1013.71
2023-02-11T04:03:14.162Z,1013.65
2023-02-11T04:08:18.195Z,1013.48
2023-02-11T04:13:22.313Z,1013.29
2023-02-11T04:18:26.493Z,1013.05
2023-02-11T04:23:30.670Z,1012.70
2023-02-11T04:28:34.981Z,1012.49
2023-02-11T04:33:39.025Z,1012.30
2023-02-11T04:38:41.260Z,1012.03
2023-02-11T04:43:45.419Z,1012.13
2023-02-11T04:48:47.701Z,1012.11
2023-02-11T04:53:51.884Z,1011.74
2023-02-11T04:58:56.060Z,1011.61
2023-02-11T05:04:00.287Z,1011.39
2023-02-11T05:09:04.333Z,1011.37
2023-02-11T05:14:08.503Z,1011.33
2023-02-11T05:19:12.781Z,1011.30
2023-02-11T05:24:16.868Z,1011.11
2023-02-11T05:29:21.003Z,1010.94
2023-02-11T05:34:25.196Z,1010.65
2023-02-11T05:39:29.329Z,1010.54
2023-02-11T05:44:33.476Z,1010.39
2023-02-11T05:49:37.671Z,1010.30
2023-02-11T05:54:41.818Z,1010.32
2023-02-11T05:59:45.957Z,1010.26
2023-02-11T06:04:50.164Z,1010.22
2023-02-11T06:09:54.330Z,1010.16
2023-02-11T06:14:58.456Z,1010.12
2023-02-11T06:20:02.653Z,1010.03
2023-02-11T06:25:06.782Z,1010.03
2023-02-11T06:30:10.977Z,1010.05
2023-02-11T06:35:13.241Z,1009.94
2023-02-11T06:40:17.444Z,1009.89
2023-02-11T06:45:21.597Z,1009.94
2023-02-11T06:50:25.771Z,1010.01
2023-02-11T06:55:29.882Z,1009.97
2023-02-11T07:00:32.184Z,1010.08
2023-02-11T07:05:36.329Z,1010.06
2023-02-11T07:10:40.498Z,1010.11
2023-02-11T07:15:44.714Z,1010.11
2023-02-11T07:20:48.854Z,1009.97
2023-02-11T07:25:53.067Z,1010.04
2023-02-11T07:30:57.165Z,1010.16
2023-02-11T07:36:01.343Z,1010.14
2023-02-11T07:41:05.468Z,1010.16
2023-02-11T07:46:09.650Z,1010.14
2023-02-11T07:51:13.801Z,1010.16
2023-02-11T07:56:17.982Z,1010.01
2023-02-11T08:01:22.204Z,1009.95
2023-02-11T08:06:26.333Z,1009.99
2023-02-11T08:11:30.463Z,1010.09
2023-02-11T08:16:34.717Z,1010.08
2023-02-11T08:21:38.810Z,1009.96
2023-02-11T08:26:42.924Z,1010.20
2023-02-11T08:31:47.286Z,1010.20
2023-02-11T08:36:51.276Z,1010.29
2023-02-11T08:41:55.441Z,1010.29
2023-02-11T08:46:57.694Z,1010.32
2023-02-11T08:52:01.892Z,1010.36
2023-02-11T08:57:06.050Z,1010.28
2023-02-11T09:02:08.338Z,1010.30
2023-02-11T09:07:12.503Z,1010.36
2023-02-11T09:12:16.653Z,1010.40
2023-02-11T09:17:20.779Z,1010.55
2023-02-11T09:22:24.970Z,1010.56
2023-02-11T09:27:29.136Z,1010.48
2023-02-11T09:32:33.290Z,1010.53
2023-02-11T09:37:37.581Z,1010.60
2023-02-11T09:42:41.622Z,1010.65
2023-02-11T09:47:45.829Z,1010.66
2023-02-11T09:52:48.076Z,1010.75
2023-02-11T09:57:52.221Z,1010.79
2023-02-11T10:02:56.357Z,1010.84
2023-02-11T10:07:58.626Z,1010.81
2023-02-11T10:13:02.813Z,1010.86
2023-02-11T10:18:06.986Z,1010.89
2023-02-11T10:23:11.148Z,1010.99
2023-02-11T10:28:15.404Z,1011.08
2023-02-11T10:33:19.564Z,1011.13
2023-02-11T10:38:23.631Z,1011.10
2023-02-11T10:43:27.794Z,1011.15
2023-02-11T10:48:31.935Z,1011.31
2023-02-11T10:53:36.211Z,1011.26
2023-02-11T10:58:40.266Z,1011.35
2023-02-11T11:03:44.440Z,1011.39
2023-02-11T11:08:48.600Z,1011.47
2023-02-11T11:13:52.777Z,1011.56
2023-02-11T11:18:56.920Z,1011.63
2023-02-11T11:24:01.105Z,1011.69
2023-02-11T11:29:05.256Z,1011.73
2023-02-11T11:39:14.445Z,1011.77
2023-02-11T11:44:17.742Z,1011.76
2023-02-11T11:49:21.895Z,1011.87
2023-02-11T11:54:26.048Z,1011.86
2023-02-11T11:59:28.317Z,1011.77
2023-02-11T12:04:32.491Z,1011.91
2023-02-11T12:09:36.668Z,1011.90
2023-02-11T12:14:40.825Z,1011.93
2023-02-11T12:19:44.973Z,1011.79
2023-02-11T12:24:49.176Z,1011.84
2023-02-11T12:29:53.319Z,1011.78
2023-02-11T12:34:57.491Z,1012.01
2023-02-11T12:40:01.633Z,1011.89
2023-02-11T12:45:05.806Z,1011.88
2023-02-11T12:50:10.038Z,1011.99
2023-02-11T12:55:14.133Z,1012.09
2023-02-11T13:00:18.294Z,1012.11
2023-02-11T13:05:22.462Z,1012.00
2023-02-11T13:10:26.625Z,1012.02
2023-02-11T13:15:30.780Z,1012.07
2023-02-11T13:20:34.962Z,1012.06
2023-02-11T13:25:39.115Z,1012.14
2023-02-11T13:35:47.444Z,1012.07
2023-02-11T13:40:51.935Z,1012.04
2023-02-11T13:45:55.790Z,1012.11
2023-02-11T13:50:58.040Z,1012.20
2023-02-11T13:56:02.215Z,1012.13
2023-02-11T14:01:04.539Z,1012.15
2023-02-11T14:06:08.613Z,1012.26
2023-02-11T14:11:12.826Z,1012.30
2023-02-11T14:16:22.514Z,1012.45
2023-02-11T14:21:21.106Z,1012.47
2023-02-11T14:26:25.291Z,1012.46
2023-02-11T14:31:29.555Z,1012.46
2023-02-11T14:36:33.614Z,1012.20
2023-02-11T14:41:37.786Z,1012.22
2023-02-11T14:51:46.084Z,1012.19
2023-02-11T14:56:50.223Z,1012.12
2023-02-11T15:01:54.677Z,1012.17
2023-02-11T15:06:58.582Z,1012.24
2023-02-11T15:12:02.746Z,1012.33
2023-02-11T15:17:06.876Z,1012.43
2023-02-11T15:22:11.068Z,1012.48
2023-02-11T15:27:15.199Z,1012.55
2023-02-11T15:32:19.483Z,1012.64
2023-02-11T15:37:23.610Z,1012.71
2023-02-11T15:42:27.705Z,1012.91
2023-02-11T15:47:32.955Z,1013.05
2023-02-11T15:52:34.107Z,1013.08
2023-02-11T15:57:38.331Z,1013.18
2023-02-11T16:02:42.535Z,1013.12
2023-02-11T16:07:46.622Z,1013.25
2023-02-11T16:12:50.780Z,1013.46
2023-02-11T16:17:55.007Z,1013.44
2023-02-11T16:22:59.117Z,1013.45
2023-02-11T16:28:03.311Z,1013.51
2023-02-11T16:33:07.458Z,1013.66
2023-02-11T16:38:11.614Z,1013.67
2023-02-11T16:43:15.761Z,1013.65
2023-02-11T16:48:19.934Z,1013.50
2023-02-11T16:53:24.078Z,1013.58
2023-02-11T16:58:28.273Z,1013.42
2023-02-11T17:03:32.402Z,1013.41
2023-02-11T17:08:36.572Z,1013.46
2023-02-11T17:13:40.722Z,1013.46
2023-02-11T17:18:44.869Z,1013.21
2023-02-11T17:23:49.064Z,1013.17
2023-02-11T17:28:53.241Z,1013.23
2023-02-11T17:33:57.370Z,1013.16
2023-02-11T17:38:59.651Z,1013.18
2023-02-11T17:44:03.823Z,1013.23
2023-02-11T17:49:06.079Z,1013.27
2023-02-11T17:54:10.222Z,1013.36
2023-02-11T17:59:12.527Z,1013.27
2023-02-11T18:04:16.739Z,1013.31
2023-02-11T18:09:20.860Z,1013.41
2023-02-11T18:14:23.110Z,1013.47
2023-02-11T18:19:27.279Z,1013.40
2023-02-11T18:24:29.567Z,1013.49
2023-02-11T18:29:33.717Z,1013.63
2023-02-11T18:34:37.894Z,1013.39
2023-02-11T18:39:42.059Z,1013.42
2023-02-11T18:44:46.230Z,1013.29
2023-02-11T18:49:50.387Z,1013.24
2023-02-11T18:54:54.542Z,1013.26
2023-02-11T18:59:58.665Z,1013.37
2023-02-11T19:05:02.861Z,1013.40
2023-02-11T19:10:07.002Z,1013.31
2023-02-11T19:15:11.212Z,1013.47
2023-02-11T19:20:15.353Z,1013.49
2023-02-11T19:25:19.509Z,1013.44
2023-02-11T19:30:23.666Z,1013.44
2023-02-11T19:35:27.853Z,1013.45
2023-02-11T19:40:31.979Z,1013.52
2023-02-11T19:45:36.150Z,1013.50
2023-02-11T19:50:40.295Z,1013.53
2023-02-11T19:55:44.620Z,1013.56
2023-02-11T20:00:46.748Z,1013.51
2023-02-11T20:05:51.285Z,1013.60
2023-02-11T20:10:55.114Z,1013.68
2023-02-11T20:15:57.434Z,1013.77
2023-02-11T20:21:01.533Z,1013.66
2023-02-11T20:26:05.686Z,1013.57
2023-02-11T20:31:09.933Z,1013.62
2023-02-11T20:36:14.023Z,1013.71
2023-02-11T20:41:18.177Z,1013.57
2023-02-11T20:46:22.347Z,1013.61
2023-02-11T20:51:26.523Z,1013.78
2023-02-11T20:56:30.664Z,1013.70
2023-02-11T21:01:34.843Z,1013.74
2023-02-11T21:06:38.983Z,1013.77
2023-02-11T21:11:43.138Z,1013.77
2023-02-11T21:16:47.373Z,1013.76
2023-02-11T21:21:51.476Z,1013.84
2023-02-11T21:26:55.599Z,1013.87
2023-02-11T21:32:00.102Z,1013.82
2023-02-11T21:37:03.952Z,1013.83
2023-02-11T21:42:08.167Z,1013.73
2023-02-11T21:47:12.271Z,1013.76
2023-02-11T21:52:16.481Z,1013.77
2023-02-11T21:57:20.584Z,1013.79
2023-02-11T22:02:22.899Z,1013.74
2023-02-11T22:07:27.014Z,1013.75
2023-02-11T22:12:31.195Z,1013.67
2023-02-11T22:17:33.585Z,1013.66
2023-02-11T22:22:37.631Z,1013.66
2023-02-11T22:27:41.816Z,1013.75
2023-02-11T22:32:45.974Z,1013.83
2023-02-11T22:37:50.087Z,1013.83
2023-02-11T22:42:54.253Z,1013.85
2023-02-11T22:47:58.458Z,1013.91
2023-02-11T22:53:02.634Z,1013.93
2023-02-11T22:58:06.741Z,1013.93
2023-02-11T23:03:11.018Z,1014.00
2023-02-11T23:08:15.106Z,1014.07
2023-02-11T23:13:19.246Z,1014.15
2023-02-11T23:18:23.410Z,1014.18
2023-02-11T23:23:27.583Z,1014.22
2023-02-11T23:28:31.811Z,1014.23
2023-02-11T23:33:35.901Z,1014.26
2023-02-11T23:38:40.077Z,1014.29
2023-02-11T23:43:44.192Z,1014.32
2023-02-11T23:48:48.362Z,1014.36
2023-02-11T23:53:52.571Z,1014.30
2023-02-11T23:58:56.664Z,1014.30
